createdAt,value
2018-03-03T00:00:06.124Z,27.70
2018-03-03T00:02:32.324Z,23.83
2018-03-03T00:04:58.544Z,51.30
2018-03-03T00:07:24.736Z,33.70
2018-03-03T00:09:51.700Z,36.10
2018-03-03T00:12:18.654Z,32.47
2018-03-03T00:14:44.876Z,25.37
2018-03-03T00:17:11.808Z,45.17
2018-03-03T00:19:38.780Z,39.30
2018-03-03T00:22:04.974Z,22.10
2018-03-03T00:24:31.999Z,35.43
2018-03-03T00:26:58.202Z,29.00
2018-03-03T00:29:24.419Z,43.97
2018-03-03T00:31:50.644Z,35.77
2018-03-03T00:34:16.868Z,38.83
2018-03-03T00:36:43.061Z,27.73
2018-03-03T00:39:09.288Z,22.07
2018-03-03T00:41:35.485Z,20.40
2018-03-03T00:44:01.729Z,25.40
2018-03-03T00:46:27.924Z,46.33
2018-03-03T00:48:54.124Z,31.97
2018-03-03T00:51:21.083Z,22.37
2018-03-03T00:53:47.276Z,12.37
2018-03-03T00:56:13.504Z,40.87
2018-03-03T00:58:40.000Z,32.30
2018-03-03T01:01:06.220Z,41.80
2018-03-03T01:03:32.484Z,21.77
2018-03-03T01:05:58.712Z,53.00
2018-03-03T01:08:24.913Z,24.47
2018-03-03T01:10:58.002Z,19.60
2018-03-03T01:13:24.187Z,34.40
2018-03-03T01:15:51.152Z,40.27
2018-03-03T01:18:17.351Z,36.67
2018-03-03T01:20:44.312Z,26.93
2018-03-03T01:23:11.246Z,33.33
2018-03-03T01:25:37.468Z,42.40
2018-03-03T01:28:03.659Z,24.43
2018-03-03T01:30:29.881Z,23.20
2018-03-03T01:32:56.097Z,38.57
2018-03-03T01:35:22.320Z,44.17
2018-03-03T01:37:48.512Z,21.83
2018-03-03T01:40:16.216Z,27.23
2018-03-03T01:42:42.404Z,8.77
2018-03-03T01:45:08.637Z,43.83
2018-03-03T01:47:35.127Z,30.97
2018-03-03T01:50:01.357Z,29.50
2018-03-03T01:52:27.547Z,27.60
2018-03-03T01:54:54.517Z,24.97
2018-03-03T01:57:20.716Z,39.90
2018-03-03T01:59:47.932Z,38.57
2018-03-03T02:02:14.129Z,20.00
2018-03-03T02:04:40.324Z,23.17
2018-03-03T02:07:07.293Z,29.73
2018-03-03T02:09:33.507Z,25.90
2018-03-03T02:12:00.439Z,28.47
2018-03-03T02:14:27.875Z,32.93
2018-03-03T02:16:55.535Z,30.87
2018-03-03T02:19:23.304Z,40.70
2018-03-03T02:21:50.864Z,22.73
2018-03-03T02:24:17.851Z,36.67
2018-03-03T02:26:44.835Z,28.50
2018-03-03T02:29:11.049Z,33.50
2018-03-03T02:31:37.306Z,38.53
2018-03-03T02:34:03.564Z,18.07
2018-03-03T02:36:30.060Z,21.70
2018-03-03T02:38:56.253Z,37.43
2018-03-03T02:41:22.478Z,27.77
2018-03-03T02:43:49.407Z,22.60
2018-03-03T02:46:16.369Z,23.60
2018-03-03T02:48:43.305Z,9.73
2018-03-03T02:51:10.266Z,46.87
2018-03-03T02:53:36.497Z,24.13
2018-03-03T02:56:02.720Z,36.67
2018-03-03T02:58:29.658Z,27.37
2018-03-03T03:00:56.618Z,24.80
2018-03-03T03:03:22.828Z,37.60
2018-03-03T03:05:51.020Z,29.20
2018-03-03T03:08:17.980Z,54.87
2018-03-03T03:10:44.203Z,49.73
2018-03-03T03:13:10.397Z,55.30
2018-03-03T03:15:36.616Z,24.83
2018-03-03T03:18:02.853Z,46.43
2018-03-03T03:20:29.044Z,32.00
2018-03-03T03:22:55.256Z,15.87
2018-03-03T03:25:21.457Z,22.00
2018-03-03T03:27:48.421Z,25.87
2018-03-03T03:30:14.636Z,17.00
2018-03-03T03:32:41.624Z,21.33
2018-03-03T03:35:07.813Z,25.20
2018-03-03T03:37:34.786Z,38.97
2018-03-03T03:40:01.000Z,28.87
2018-03-03T03:42:27.196Z,28.77
2018-03-03T03:44:54.152Z,38.57
2018-03-03T03:47:21.080Z,26.60
2018-03-03T03:49:47.308Z,34.43
2018-03-03T03:52:14.252Z,19.57
2018-03-03T03:54:40.448Z,23.10
2018-03-03T03:57:06.659Z,26.37
2018-03-03T03:59:32.873Z,42.20
2018-03-03T04:01:59.092Z,15.60
2018-03-03T04:04:26.016Z,32.17
2018-03-03T04:06:52.256Z,16.20
2018-03-03T04:09:19.185Z,35.57
2018-03-03T04:11:45.384Z,33.77
2018-03-03T04:14:11.592Z,50.20
2018-03-03T04:16:37.785Z,26.67
2018-03-03T04:19:04.747Z,27.27
2018-03-03T04:21:31.699Z,30.07
2018-03-03T04:23:57.956Z,23.97
2018-03-03T04:26:24.172Z,15.20
2018-03-03T04:28:50.385Z,16.80
2018-03-03T04:31:17.364Z,18.63
2018-03-03T04:33:43.571Z,22.23
2018-03-03T04:36:09.826Z,42.03
2018-03-03T04:38:36.037Z,36.00
2018-03-03T04:41:02.272Z,34.97
2018-03-03T04:43:28.484Z,36.40
2018-03-03T04:45:54.691Z,26.07
2018-03-03T04:48:21.667Z,40.57
2018-03-03T04:50:47.940Z,33.60
2018-03-03T04:53:14.177Z,24.00
2018-03-03T04:55:41.164Z,21.60
2018-03-03T04:58:07.496Z,17.73
2018-03-03T05:00:39.636Z,15.60
2018-03-03T05:03:12.596Z,25.03
2018-03-03T05:08:39.475Z,39.10
2018-03-03T05:11:05.693Z,40.30
2018-03-03T05:13:35.885Z,35.77
2018-03-03T05:16:08.270Z,28.30
2018-03-03T05:21:48.132Z,28.60
2018-03-03T05:24:20.571Z,28.23
2018-03-03T05:26:53.620Z,21.47
2018-03-03T05:29:23.825Z,11.57
2018-03-03T05:31:56.073Z,38.53
2018-03-03T05:34:28.492Z,8.23
2018-03-03T05:37:00.841Z,21.60
2018-03-03T05:39:33.149Z,38.20
2018-03-03T05:45:09.699Z,22.60
2018-03-03T05:47:41.996Z,16.03
2018-03-03T05:50:28.173Z,27.17
2018-03-03T05:56:11.992Z,29.00
2018-03-03T05:58:56.780Z,16.67
2018-03-03T06:01:38.955Z,22.63
2018-03-03T06:04:11.995Z,32.47
2018-03-03T06:06:40.144Z,23.07
2018-03-03T06:09:06.351Z,14.07
2018-03-03T06:11:33.340Z,23.80
2018-03-03T06:13:59.560Z,23.30
2018-03-03T06:16:25.758Z,21.70
2018-03-03T06:18:52.736Z,26.33
2018-03-03T06:21:18.924Z,41.50
2018-03-03T06:23:45.873Z,25.83
2018-03-03T06:26:12.804Z,19.53
2018-03-03T06:28:39.015Z,27.47
2018-03-03T06:31:05.231Z,40.80
2018-03-03T06:33:31.444Z,27.23
2018-03-03T06:35:57.634Z,23.67
2018-03-03T06:38:24.589Z,25.87
2018-03-03T06:40:51.520Z,41.23
2018-03-03T06:43:18.444Z,34.30
2018-03-03T06:45:44.680Z,42.33
2018-03-03T06:48:10.872Z,33.30
2018-03-03T06:50:37.148Z,35.87
2018-03-03T06:53:03.344Z,22.73
2018-03-03T06:55:29.560Z,45.73
2018-03-03T06:57:55.777Z,37.57
2018-03-03T07:00:22.063Z,35.50
2018-03-03T07:02:48.252Z,53.00
2018-03-03T07:05:14.473Z,24.33
2018-03-03T07:07:40.716Z,45.73
2018-03-03T07:10:07.396Z,58.20
2018-03-03T07:12:34.343Z,23.80
2018-03-03T07:15:01.311Z,51.40
2018-03-03T07:17:27.500Z,44.47
2018-03-03T07:19:53.724Z,42.43
2018-03-03T07:22:19.909Z,39.57
2018-03-03T07:24:46.120Z,50.60
2018-03-03T07:27:12.337Z,50.53
2018-03-03T07:29:39.269Z,25.73
2018-03-03T07:32:05.475Z,46.33
2018-03-03T07:34:31.672Z,42.13
2018-03-03T07:36:57.889Z,49.47
2018-03-03T07:39:24.083Z,49.30
2018-03-03T07:41:51.044Z,52.87
2018-03-03T07:44:17.977Z,52.90
2018-03-03T07:46:44.162Z,58.30
2018-03-03T07:49:10.462Z,48.20
2018-03-03T07:51:36.660Z,37.47
2018-03-03T07:54:02.876Z,38.73
2018-03-03T07:56:41.468Z,26.03
2018-03-03T07:59:07.715Z,36.20
2018-03-03T08:01:33.921Z,60.53
2018-03-03T08:04:00.137Z,31.20
2018-03-03T08:06:26.344Z,40.97
2018-03-03T08:08:53.293Z,24.53
2018-03-03T08:11:20.247Z,44.90
2018-03-03T08:13:46.431Z,25.53
2018-03-03T08:16:12.643Z,33.07
2018-03-03T08:18:38.836Z,29.30
2018-03-03T08:21:05.052Z,54.70
2018-03-03T08:23:31.988Z,30.30
2018-03-03T08:25:59.021Z,40.47
2018-03-03T08:28:25.220Z,36.47
2018-03-03T08:30:51.408Z,28.00
2018-03-03T08:33:17.619Z,43.27
2018-03-03T08:35:44.552Z,51.83
2018-03-03T08:38:10.797Z,51.90
2018-03-03T08:40:37.728Z,49.77
2018-03-03T08:43:03.916Z,36.97
2018-03-03T08:45:30.140Z,51.80
2018-03-03T08:47:56.394Z,45.53
2018-03-03T08:50:22.613Z,54.37
2018-03-03T08:52:48.804Z,34.97
2018-03-03T08:55:15.016Z,47.00
2018-03-03T08:57:41.953Z,50.47
2018-03-03T09:00:08.285Z,35.07
2018-03-03T09:02:34.471Z,37.73
2018-03-03T09:05:00.691Z,64.10
2018-03-03T09:07:26.896Z,27.83
2018-03-03T09:09:53.092Z,54.83
2018-03-03T09:12:19.297Z,43.50
2018-03-03T09:14:45.484Z,47.60
2018-03-03T09:17:11.675Z,47.63
2018-03-03T09:19:38.632Z,55.03
2018-03-03T09:22:05.566Z,50.87
2018-03-03T09:24:33.265Z,80.43
2018-03-03T09:26:59.457Z,51.03
2018-03-03T09:29:27.152Z,36.03
2018-03-03T09:32:00.299Z,33.93
2018-03-03T09:34:26.512Z,41.70
2018-03-03T09:36:52.720Z,59.67
2018-03-03T09:39:18.915Z,50.77
2018-03-03T09:41:45.868Z,47.13
2018-03-03T09:44:12.792Z,70.50
2018-03-03T09:46:39.003Z,52.63
2018-03-03T09:49:05.208Z,51.17
2018-03-03T09:51:31.422Z,56.33
2018-03-03T09:53:57.631Z,60.67
2018-03-03T09:56:24.585Z,61.07
2018-03-03T09:58:50.822Z,72.80
2018-03-03T10:01:17.079Z,73.93
2018-03-03T10:03:43.289Z,60.87
2018-03-03T10:06:09.488Z,59.27
2018-03-03T10:08:36.444Z,50.00
2018-03-03T10:11:02.628Z,65.57
2018-03-03T10:13:28.835Z,65.50
2018-03-03T10:15:55.044Z,68.37
2018-03-03T10:18:21.232Z,50.63
2018-03-03T10:20:47.461Z,40.13
2018-03-03T10:23:13.661Z,48.33
2018-03-03T10:25:39.909Z,62.70
2018-03-03T10:28:07.580Z,38.17
2018-03-03T10:30:33.777Z,66.10
2018-03-03T10:33:00.038Z,45.33
2018-03-03T10:35:26.208Z,76.40
2018-03-03T10:37:52.432Z,64.50
2018-03-03T10:40:18.624Z,76.43
2018-03-03T10:42:44.840Z,67.70
2018-03-03T10:45:11.028Z,69.10
2018-03-03T10:47:37.216Z,51.57
2018-03-03T10:50:04.189Z,60.00
2018-03-03T10:52:30.380Z,51.77
2018-03-03T10:54:56.592Z,78.43
2018-03-03T10:57:22.780Z,49.60
2018-03-03T10:59:49.011Z,57.90
2018-03-03T11:02:15.196Z,40.70
2018-03-03T11:04:41.400Z,55.43
2018-03-03T11:07:07.609Z,42.57
2018-03-03T11:09:33.791Z,55.90
2018-03-03T11:12:00.735Z,80.00
2018-03-03T11:14:27.660Z,50.47
2018-03-03T11:16:55.360Z,51.30
2018-03-03T11:19:22.292Z,33.30
2018-03-03T11:21:49.220Z,49.77
2018-03-03T11:24:15.440Z,67.83
2018-03-03T11:26:41.627Z,70.23
2018-03-03T11:29:07.841Z,53.27
2018-03-03T11:31:34.769Z,70.30
2018-03-03T11:34:01.719Z,49.83
2018-03-03T11:36:28.643Z,51.47
2018-03-03T11:38:54.848Z,53.57
2018-03-03T11:41:21.037Z,54.50
2018-03-03T11:43:47.229Z,41.50
2018-03-03T11:46:13.492Z,66.00
2018-03-03T11:48:39.656Z,72.03
2018-03-03T11:51:05.932Z,51.67
2018-03-03T11:53:32.860Z,68.53
2018-03-03T11:55:59.924Z,73.00
2018-03-03T11:58:26.869Z,164.50
2018-03-03T12:00:53.072Z,197.40
2018-03-03T12:03:19.285Z,84.40
2018-03-03T12:05:45.472Z,83.03
2018-03-03T12:08:12.425Z,254.87
2018-03-03T12:10:38.619Z,137.57
2018-03-03T12:13:04.848Z,87.97
2018-03-03T12:15:31.040Z,77.63
2018-03-03T12:17:57.239Z,75.27
2018-03-03T12:20:23.447Z,64.03
2018-03-03T12:22:50.379Z,65.87
2018-03-03T12:25:16.593Z,65.60
2018-03-03T12:27:42.808Z,79.40
2018-03-03T12:30:09.003Z,71.57
2018-03-03T12:32:35.213Z,61.10
2018-03-03T12:35:02.148Z,84.47
2018-03-03T12:37:28.381Z,55.40
2018-03-03T12:39:55.313Z,70.27
2018-03-03T12:42:21.504Z,67.40
2018-03-03T12:44:47.712Z,64.83
2018-03-03T12:47:13.900Z,51.10
2018-03-03T12:49:40.115Z,67.63
2018-03-03T12:52:06.313Z,75.17
2018-03-03T12:54:32.590Z,53.70
2018-03-03T12:56:58.808Z,63.63
2018-03-03T12:59:25.040Z,51.77
2018-03-03T13:01:51.219Z,73.97
2018-03-03T13:04:17.413Z,59.50
2018-03-03T13:06:44.368Z,65.50
2018-03-03T13:09:11.291Z,52.53
2018-03-03T13:11:37.498Z,55.37
2018-03-03T13:14:03.688Z,54.77
2018-03-03T13:16:29.900Z,63.63
2018-03-03T13:18:56.832Z,81.33
2018-03-03T13:21:23.808Z,100.83
2018-03-03T13:23:50.003Z,69.07
2018-03-03T13:26:16.188Z,67.63
2018-03-03T13:28:42.395Z,62.53
2018-03-03T13:31:08.585Z,54.60
2018-03-03T13:33:34.817Z,44.83
2018-03-03T13:36:01.000Z,39.40
2018-03-03T13:38:27.212Z,48.03
2018-03-03T13:40:53.393Z,49.23
2018-03-03T13:43:19.622Z,48.00
2018-03-03T13:45:52.900Z,36.47
2018-03-03T13:48:19.116Z,59.17
2018-03-03T13:50:45.353Z,39.07
2018-03-03T13:53:11.548Z,49.30
2018-03-03T13:55:37.757Z,47.77
2018-03-03T13:58:04.708Z,65.17
2018-03-03T14:00:31.661Z,62.60
2018-03-03T14:02:57.844Z,48.70
2018-03-03T14:05:24.072Z,38.77
2018-03-03T14:07:50.260Z,39.10
2018-03-03T14:10:16.452Z,44.70
2018-03-03T14:12:43.400Z,42.10
2018-03-03T14:15:10.332Z,38.57
2018-03-03T14:17:36.544Z,41.07
2018-03-03T14:20:02.731Z,41.70
2018-03-03T14:22:28.982Z,47.87
2018-03-03T14:24:55.163Z,38.17
2018-03-03T14:27:22.100Z,39.77
2018-03-03T14:29:48.318Z,52.00
2018-03-03T14:32:14.509Z,39.40
2018-03-03T14:34:40.736Z,32.67
2018-03-03T14:37:06.925Z,45.33
2018-03-03T14:39:33.880Z,37.53
2018-03-03T14:42:00.815Z,33.17
2018-03-03T14:44:27.761Z,39.40
2018-03-03T14:46:54.716Z,34.70
2018-03-03T14:49:21.660Z,43.90
2018-03-03T14:51:48.604Z,42.77
2018-03-03T14:54:15.527Z,35.47
2018-03-03T14:56:41.740Z,35.80
2018-03-03T14:59:07.961Z,35.23
2018-03-03T15:01:34.203Z,44.37
2018-03-03T15:04:00.394Z,39.00
2018-03-03T15:06:26.587Z,66.13
2018-03-03T15:08:53.537Z,76.10
2018-03-03T15:11:20.528Z,73.57
2018-03-03T15:13:46.736Z,56.30
2018-03-03T15:16:12.989Z,58.37
2018-03-03T15:18:39.201Z,75.50
2018-03-03T15:21:05.389Z,36.70
2018-03-03T15:23:31.602Z,38.03
2018-03-03T15:25:58.533Z,35.90
2018-03-03T15:28:24.749Z,43.40
2018-03-03T15:30:50.946Z,36.97
2018-03-03T15:33:17.157Z,44.80
2018-03-03T15:35:44.124Z,40.33
2018-03-03T15:38:10.307Z,39.23
2018-03-03T15:40:36.519Z,35.00
2018-03-03T15:43:02.752Z,40.40
2018-03-03T15:45:28.965Z,26.47
2018-03-03T15:47:55.156Z,34.43
2018-03-03T15:50:22.116Z,41.90
2018-03-03T15:52:48.308Z,29.70
2018-03-03T15:55:14.492Z,35.90
2018-03-03T15:57:40.704Z,29.03
2018-03-03T16:00:06.911Z,22.47
2018-03-03T16:02:33.856Z,33.90
2018-03-03T16:05:00.788Z,24.40
2018-03-03T16:07:27.740Z,30.27
2018-03-03T16:09:54.668Z,39.80
2018-03-03T16:12:20.912Z,45.63
2018-03-03T16:14:47.860Z,35.50
2018-03-03T16:17:14.820Z,26.00
2018-03-03T16:19:41.777Z,40.63
2018-03-03T16:22:07.964Z,42.37
2018-03-03T16:24:34.188Z,28.60
2018-03-03T16:27:01.860Z,50.80
2018-03-03T16:29:29.553Z,36.10
2018-03-03T16:31:55.756Z,36.57
2018-03-03T16:34:22.711Z,26.97
2018-03-03T16:36:49.639Z,28.17
2018-03-03T16:39:15.835Z,25.17
2018-03-03T16:41:42.048Z,41.50
2018-03-03T16:44:08.239Z,29.67
2018-03-03T16:46:35.190Z,39.73
2018-03-03T16:49:02.186Z,14.23
2018-03-03T16:51:29.105Z,45.97
2018-03-03T16:53:55.325Z,32.63
2018-03-03T16:56:21.569Z,57.13
2018-03-03T16:58:47.792Z,36.37
2018-03-03T17:01:14.020Z,61.87
2018-03-03T17:03:40.396Z,42.13
2018-03-03T17:06:06.619Z,27.33
2018-03-03T17:08:32.808Z,45.87
2018-03-03T17:10:59.065Z,32.60
2018-03-03T17:13:25.284Z,40.43
2018-03-03T17:15:51.468Z,58.73
2018-03-03T17:18:18.399Z,50.57
2018-03-03T17:20:44.608Z,39.67
2018-03-03T17:23:10.808Z,50.70
2018-03-03T17:25:37.019Z,41.20
2018-03-03T17:28:03.212Z,40.53
2018-03-03T17:30:30.184Z,39.70
2018-03-03T17:32:57.480Z,50.83
2018-03-03T17:35:23.705Z,43.90
2018-03-03T17:37:49.892Z,54.60
2018-03-03T17:40:16.857Z,46.27
2018-03-03T17:42:43.048Z,29.93
2018-03-03T17:45:09.271Z,38.33
2018-03-03T17:47:36.944Z,51.07
2018-03-03T17:50:03.160Z,34.87
2018-03-03T17:52:29.352Z,40.23
2018-03-03T17:54:55.569Z,46.77
2018-03-03T17:57:21.756Z,56.67
2018-03-03T17:59:47.977Z,38.20
2018-03-03T18:02:14.185Z,47.30
2018-03-03T18:04:40.399Z,47.47
2018-03-03T18:07:06.589Z,51.03
2018-03-03T18:09:33.612Z,42.00
2018-03-03T18:11:59.838Z,47.40
2018-03-03T18:14:27.747Z,35.53
2018-03-03T18:16:53.965Z,45.47
2018-03-03T18:19:26.892Z,55.83
2018-03-03T18:21:53.081Z,43.47
2018-03-03T18:24:39.052Z,39.50
2018-03-03T18:27:05.241Z,46.60
2018-03-03T18:29:31.465Z,60.80
2018-03-03T18:31:57.648Z,43.67
2018-03-03T18:34:24.620Z,41.27
2018-03-03T18:36:50.844Z,41.47
2018-03-03T18:39:17.051Z,40.87
2018-03-03T18:41:44.078Z,47.47
2018-03-03T18:44:11.748Z,28.73
2018-03-03T18:46:38.700Z,48.10
2018-03-03T18:49:04.905Z,44.97
2018-03-03T18:51:31.124Z,51.53
2018-03-03T18:53:57.304Z,50.47
2018-03-03T18:56:24.275Z,34.50
2018-03-03T18:58:50.468Z,49.20
2018-03-03T19:01:17.456Z,44.50
2018-03-03T19:03:43.645Z,50.00
2018-03-03T19:06:10.581Z,53.83
2018-03-03T19:08:36.809Z,39.87
2018-03-03T19:11:03.032Z,46.70
2018-03-03T19:13:29.260Z,32.63
2018-03-03T19:15:56.189Z,48.47
2018-03-03T19:18:22.756Z,55.43
2018-03-03T19:20:48.949Z,38.17
2018-03-03T19:23:15.173Z,30.53
2018-03-03T19:25:41.387Z,48.23
2018-03-03T19:28:07.613Z,51.10
2018-03-03T19:30:33.808Z,31.83
2018-03-03T19:33:00.772Z,43.53
2018-03-03T19:35:26.958Z,59.93
2018-03-03T19:37:54.660Z,41.37
2018-03-03T19:40:20.853Z,46.60
2018-03-03T19:42:47.068Z,31.87
2018-03-03T19:45:13.264Z,47.70
2018-03-03T19:47:39.545Z,38.10
2018-03-03T19:50:05.727Z,43.80
2018-03-03T19:52:31.949Z,46.40
2018-03-03T19:54:58.140Z,44.53
2018-03-03T19:57:24.356Z,53.70
2018-03-03T19:59:50.545Z,41.23
2018-03-03T20:02:16.760Z,34.57
2018-03-03T20:04:42.944Z,54.37
2018-03-03T20:07:09.168Z,40.00
2018-03-03T20:09:36.101Z,46.50
2018-03-03T20:12:02.533Z,48.10
2018-03-03T20:14:28.745Z,41.03
2018-03-03T20:16:55.172Z,40.20
2018-03-03T20:19:21.398Z,50.20
2018-03-03T20:21:47.584Z,42.77
2018-03-03T20:24:14.553Z,38.97
2018-03-03T20:26:40.744Z,63.87
2018-03-03T20:29:07.705Z,59.70
2018-03-03T20:31:34.656Z,42.83
2018-03-03T20:34:01.616Z,26.63
2018-03-03T20:36:27.804Z,39.77
2018-03-03T20:38:55.870Z,41.73
2018-03-03T20:41:22.059Z,67.20
2018-03-03T20:43:48.276Z,40.77
2018-03-03T20:46:14.495Z,49.50
2018-03-03T20:48:41.424Z,51.33
2018-03-03T20:51:07.644Z,54.13
2018-03-03T20:53:35.992Z,62.90
2018-03-03T20:56:03.291Z,55.10
2018-03-03T20:58:29.548Z,44.43
2018-03-03T21:00:55.768Z,60.37
2018-03-03T21:03:21.961Z,52.00
2018-03-03T21:05:48.198Z,54.50
2018-03-03T21:08:14.393Z,58.27
2018-03-03T21:10:40.633Z,63.80
2018-03-03T21:13:06.877Z,36.07
2018-03-03T21:15:33.096Z,68.00
2018-03-03T21:17:59.309Z,47.93
2018-03-03T21:20:25.528Z,70.07
2018-03-03T21:22:51.716Z,48.63
2018-03-03T21:25:18.644Z,71.20
2018-03-03T21:27:44.858Z,59.13
2018-03-03T21:30:11.081Z,52.27
2018-03-03T21:32:37.272Z,75.23
2018-03-03T21:35:03.469Z,63.87
2018-03-03T21:37:30.433Z,56.63
2018-03-03T21:39:56.689Z,67.80
2018-03-03T21:42:22.876Z,67.00
2018-03-03T21:44:50.224Z,54.73
2018-03-03T21:47:16.446Z,62.13
2018-03-03T21:49:44.115Z,63.57
2018-03-03T21:52:10.343Z,59.50
2018-03-03T21:54:36.539Z,42.37
2018-03-03T21:57:02.767Z,64.83
2018-03-03T21:59:28.952Z,73.20
2018-03-03T22:01:55.900Z,39.90
2018-03-03T22:04:22.104Z,32.67
2018-03-03T22:06:48.316Z,40.27
2018-03-03T22:09:14.503Z,42.57
2018-03-03T22:11:40.770Z,58.23
2018-03-03T22:14:06.961Z,54.77
2018-03-03T22:16:33.193Z,48.57
2018-03-03T22:18:59.390Z,67.20
2018-03-03T22:21:26.345Z,66.23
2018-03-03T22:23:52.628Z,55.50
2018-03-03T22:26:18.843Z,37.97
2018-03-03T22:28:45.032Z,50.37
2018-03-03T22:31:11.984Z,58.67
2018-03-03T22:33:38.180Z,57.57
2018-03-03T22:36:04.389Z,68.57
2018-03-03T22:38:30.645Z,56.07
2018-03-03T22:40:58.304Z,48.07
2018-03-03T22:43:24.520Z,62.53
2018-03-03T22:45:52.197Z,71.27
2018-03-03T22:48:18.476Z,40.07
2018-03-03T22:50:44.664Z,42.53
2018-03-03T22:53:11.621Z,45.10
2018-03-03T22:55:37.892Z,74.77
2018-03-03T22:58:04.128Z,66.27
2018-03-03T23:00:30.344Z,61.53
2018-03-03T23:02:56.568Z,57.70
2018-03-03T23:05:22.757Z,57.53
2018-03-03T23:07:49.720Z,63.00
2018-03-03T23:10:15.908Z,49.90
2018-03-03T23:12:43.636Z,70.10
2018-03-03T23:15:09.833Z,51.33
2018-03-03T23:17:36.793Z,56.67
2018-03-03T23:20:03.014Z,63.97
2018-03-03T23:22:29.236Z,38.33
2018-03-03T23:24:56.163Z,54.67
2018-03-03T23:27:22.409Z,49.07
2018-03-03T23:29:49.336Z,66.70
2018-03-03T23:32:16.309Z,69.10
2018-03-03T23:34:42.508Z,60.17
2018-03-03T23:37:09.474Z,68.43
2018-03-03T23:39:36.660Z,44.93
2018-03-03T23:42:02.880Z,62.90
2018-03-03T23:44:29.072Z,51.47
2018-03-03T23:46:56.044Z,57.23
2018-03-03T23:49:22.253Z,53.97
2018-03-03T23:51:49.213Z,69.53
2018-03-03T23:54:15.404Z,63.30
2018-03-03T23:56:41.624Z,78.70
2018-03-03T23:59:07.804Z,71.23
